Time;durP1;ratioP1;P1;durP2;ratioP2;P2;SDS_P1;SDS_P2;PMS_P1;PMS_P2;Temp;Humidity;BMP_temperature;BMP_pressure;BME280_temperature;BME280_humidity;BME280_pressure;Samples;Min_cycle;Max_cycle;Signal;HPM_P1;HPM_P2
2023/05/06 00:00:30;;;;;;;46.57;43.47;;;16.20;99.90;;;;;;4970874;28;20953;-82
2023/05/06 00:02:58;;;;;;;46.17;43.17;;;16.10;99.90;;;;;;4971116;28;20464;-86
2023/05/06 00:05:26;;;;;;;45.57;42.57;;;16.20;99.90;;;;;;4971502;28;20459;-85
2023/05/06 00:07:53;;;;;;;45.70;42.50;;;16.10;99.90;;;;;;4970744;28;20467;-82
2023/05/06 00:10:21;;;;;;;50.00;46.53;;;16.20;99.90;;;;;;4970739;28;20815;-82
2023/05/06 00:12:47;;;;;;;51.20;47.70;;;16.20;99.90;;;;;;4970489;28;20483;-82
2023/05/06 00:15:14;;;;;;;46.77;43.77;;;16.20;99.90;;;;;;4970118;28;20686;-82
2023/05/06 00:17:41;;;;;;;48.10;45.00;;;16.20;99.90;;;;;;4970525;28;20451;-82
2023/05/06 00:20:09;;;;;;;47.70;44.33;;;16.10;99.90;;;;;;4970417;28;20455;-83
2023/05/06 00:22:37;;;;;;;47.43;44.23;;;16.10;99.90;;;;;;4970423;28;20869;-83
2023/05/06 00:25:05;;;;;;;47.97;44.67;;;16.00;99.90;;;;;;4973947;28;20526;-83
2023/05/06 00:27:33;;;;;;;47.10;43.87;;;16.00;99.90;;;;;;4973974;28;20517;-83
2023/05/06 00:30:00;;;;;;;47.67;44.37;;;16.10;99.90;;;;;;4973779;28;20455;-83
2023/05/06 00:32:26;;;;;;;46.03;43.03;;;16.00;99.90;;;;;;4973773;28;20452;-83
2023/05/06 00:34:53;;;;;;;46.60;43.40;;;16.00;99.90;;;;;;4974219;28;20467;-83
2023/05/06 00:37:20;;;;;;;45.90;42.87;;;15.90;99.90;;;;;;4974720;28;20462;-83
2023/05/06 00:39:48;;;;;;;46.90;43.73;;;15.90;99.90;;;;;;4975464;28;20531;-83
2023/05/06 00:42:14;;;;;;;51.57;48.17;;;15.80;99.90;;;;;;4975045;28;20460;-84
2023/05/06 00:44:41;;;;;;;49.40;46.23;;;15.70;99.90;;;;;;4975123;28;20458;-84
2023/05/06 00:47:08;;;;;;;47.50;44.20;;;15.50;99.90;;;;;;4974699;28;20471;-85
2023/05/06 00:49:35;;;;;;;46.30;43.33;;;15.40;99.90;;;;;;4974973;28;20458;-84
2023/05/06 00:52:02;;;;;;;47.97;44.53;;;15.40;99.90;;;;;;4974506;28;20455;-85
2023/05/06 00:54:29;;;;;;;46.50;43.60;;;15.30;99.90;;;;;;4987447;28;20456;-84
2023/05/06 00:56:57;;;;;;;45.47;42.40;;;15.30;99.90;;;;;;4994690;28;20537;-85
2023/05/06 00:59:24;;;;;;;47.63;44.53;;;15.20;99.90;;;;;;4979729;28;20451;-83
2023/05/06 01:01:51;;;;;;;47.30;44.10;;;15.30;99.90;;;;;;4975225;28;20463;-85
2023/05/06 01:04:18;;;;;;;48.10;44.90;;;15.40;99.90;;;;;;4975371;28;20459;-83
2023/05/06 01:06:52;;;;;;;45.30;42.20;;;15.40;99.90;;;;;;4973712;28;20452;-83
2023/05/06 01:09:22;;;;;;;45.13;42.33;;;15.20;99.90;;;;;;4973831;28;20478;-84
2023/05/06 01:11:52;;;;;;;45.20;42.43;;;15.30;99.90;;;;;;4973601;28;20452;-83
2023/05/06 01:14:28;;;;;;;47.60;44.00;;;15.30;99.90;;;;;;4973413;28;20471;-85
2023/05/06 01:16:58;;;;;;;49.50;46.20;;;15.30;99.90;;;;;;4973197;28;20502;-83
2023/05/06 01:19:37;;;;;;;47.37;43.97;;;15.20;99.90;;;;;;4973416;28;20563;-84
2023/05/06 01:22:06;;;;;;;47.60;44.40;;;15.00;99.90;;;;;;4973487;28;20460;-84
2023/05/06 01:24:36;;;;;;;48.47;45.43;;;15.10;99.90;;;;;;4973896;28;20510;-84
2023/05/06 01:27:03;;;;;;;49.80;46.70;;;15.10;99.90;;;;;;4973263;28;20961;-83
2023/05/06 01:29:30;;;;;;;46.53;43.63;;;15.20;99.90;;;;;;4972873;28;20467;-83
2023/05/06 01:32:05;;;;;;;47.30;44.20;;;15.20;99.90;;;;;;4973074;28;20448;-83
2023/05/06 01:34:41;;;;;;;46.30;43.30;;;15.20;99.90;;;;;;4972435;28;21056;-83
2023/05/06 01:37:21;;;;;;;45.60;42.47;;;15.10;99.90;;;;;;4974269;28;20853;-83
2023/05/06 01:39:51;;;;;;;46.07;42.97;;;15.20;99.90;;;;;;4973331;28;20448;-82
2023/05/06 01:42:18;;;;;;;44.60;41.80;;;15.30;99.90;;;;;;4972802;28;20451;-82
2023/05/06 01:44:47;;;;;;;44.20;41.30;;;15.30;99.90;;;;;;4972536;28;20451;-83
2023/05/06 01:47:15;;;;;;;42.50;39.70;;;15.30;99.90;;;;;;4973209;28;20765;-83
2023/05/06 01:49:42;;;;;;;47.40;44.20;;;15.30;99.90;;;;;;4973083;28;20451;-82
2023/05/06 01:52:09;;;;;;;45.77;42.57;;;15.30;99.90;;;;;;4973043;28;20900;-85
2023/05/06 01:54:35;;;;;;;42.93;39.67;;;15.20;99.90;;;;;;4972980;28;21024;-85
2023/05/06 01:57:04;;;;;;;44.00;40.93;;;15.20;99.90;;;;;;4973041;28;20489;-85
2023/05/06 01:59:30;;;;;;;44.57;41.70;;;15.10;99.90;;;;;;4973145;28;20496;-86
2023/05/06 02:01:57;;;;;;;46.60;43.43;;;15.20;99.90;;;;;;4973328;28;20462;-84
2023/05/06 02:04:24;;;;;;;45.70;42.90;;;15.10;99.90;;;;;;4973435;28;20463;-84
2023/05/06 02:06:50;;;;;;;43.77;40.97;;;15.10;99.90;;;;;;4973000;28;20466;-85
2023/05/06 02:09:17;;;;;;;41.57;39.03;;;15.10;99.90;;;;;;4972985;28;20448;-84
2023/05/06 02:11:44;;;;;;;42.00;39.40;;;15.00;99.90;;;;;;4972551;28;20443;-85
2023/05/06 02:14:12;;;;;;;41.77;39.27;;;15.00;99.90;;;;;;4973351;28;20479;-84
2023/05/06 02:16:39;;;;;;;40.83;38.43;;;15.00;99.90;;;;;;4973194;28;20496;-84
2023/05/06 02:19:05;;;;;;;39.60;37.30;;;15.00;99.90;;;;;;4973490;28;20443;-84
2023/05/06 02:21:32;;;;;;;39.57;37.13;;;15.00;99.90;;;;;;4973387;28;20487;-84
2023/05/06 02:23:59;;;;;;;39.53;36.90;;;15.00;99.90;;;;;;4972981;28;20452;-85
2023/05/06 02:26:26;;;;;;;36.80;34.80;;;15.10;99.90;;;;;;4972727;28;20860;-85
2023/05/06 02:28:53;;;;;;;39.60;37.33;;;15.20;99.90;;;;;;4973221;28;20510;-85
2023/05/06 02:31:21;;;;;;;42.27;39.77;;;15.30;99.90;;;;;;4973131;28;20459;-85
2023/05/06 02:33:48;;;;;;;41.33;38.87;;;15.20;99.90;;;;;;4972865;28;20499;-84
2023/05/06 02:36:15;;;;;;;39.30;37.20;;;15.10;99.90;;;;;;4972379;28;20499;-85
2023/05/06 02:38:41;;;;;;;40.97;38.67;;;15.00;99.90;;;;;;4972708;28;20462;-85
2023/05/06 02:41:09;;;;;;;41.30;38.30;;;15.10;99.90;;;;;;4973132;28;20456;-85
2023/05/06 02:43:36;;;;;;;40.30;37.90;;;15.00;99.90;;;;;;4973450;28;20513;-85
2023/05/06 02:46:02;;;;;;;40.97;38.47;;;14.90;99.90;;;;;;4979464;28;20809;-84
2023/05/06 02:48:30;;;;;;;39.30;36.83;;;14.90;99.90;;;;;;4972238;28;20455;-83
2023/05/06 02:50:57;;;;;;;36.00;33.90;;;14.90;99.90;;;;;;4972040;28;20817;-83
2023/05/06 02:53:24;;;;;;;35.17;33.27;;;14.80;99.90;;;;;;4982630;28;20439;-84
2023/05/06 02:55:50;;;;;;;36.80;34.80;;;14.80;99.90;;;;;;4994380;28;20468;-80
2023/05/06 02:58:17;;;;;;;35.30;33.13;;;14.80;99.90;;;;;;4995540;28;20979;-81
2023/05/06 03:00:44;;;;;;;34.97;33.07;;;14.70;99.90;;;;;;4994213;28;20535;-84
2023/05/06 03:03:10;;;;;;;36.50;34.50;;;14.70;99.90;;;;;;4988165;28;20671;-84
2023/05/06 03:05:38;;;;;;;37.23;35.23;;;14.70;99.90;;;;;;4983914;28;20448;-83
2023/05/06 03:08:05;;;;;;;35.00;32.80;;;14.70;99.90;;;;;;4976146;28;20455;-82
2023/05/06 03:10:32;;;;;;;32.03;30.33;;;14.60;99.90;;;;;;4971076;28;20456;-81
2023/05/06 03:12:59;;;;;;;32.97;31.17;;;14.60;99.90;;;;;;4970814;28;20976;-80
2023/05/06 03:15:26;;;;;;;34.00;32.00;;;14.60;99.90;;;;;;4970940;28;20502;-83
2023/05/06 03:17:52;;;;;;;32.97;31.10;;;14.60;99.90;;;;;;4971299;28;20497;-79
2023/05/06 03:20:19;;;;;;;34.83;32.80;;;14.60;99.90;;;;;;4971337;28;20824;-85
2023/05/06 03:22:47;;;;;;;33.10;31.40;;;14.60;99.90;;;;;;4972093;28;20530;-85
2023/05/06 03:25:14;;;;;;;35.47;33.20;;;14.50;99.90;;;;;;4971817;28;20458;-84
2023/05/06 03:27:40;;;;;;;31.60;30.00;;;14.50;99.90;;;;;;4971494;28;20455;-84
2023/05/06 03:30:08;;;;;;;31.50;29.90;;;14.40;99.90;;;;;;4973060;28;20955;-87
2023/05/06 03:32:35;;;;;;;33.53;31.57;;;14.40;99.90;;;;;;4972060;28;20455;-84
2023/05/06 03:35:02;;;;;;;32.70;30.70;;;14.40;99.90;;;;;;4971011;28;20459;-85
2023/05/06 03:37:29;;;;;;;35.27;33.17;;;14.40;99.90;;;;;;4971235;28;20494;-85
2023/05/06 03:39:59;;;;;;;33.97;31.87;;;14.40;99.90;;;;;;4971864;28;20479;-85
2023/05/06 03:42:26;;;;;;;32.60;30.60;;;14.40;99.90;;;;;;4972370;28;20460;-85
2023/05/06 03:44:52;;;;;;;34.83;32.80;;;14.40;99.90;;;;;;4975111;28;20460;-85
2023/05/06 03:47:19;;;;;;;33.17;31.30;;;14.40;99.90;;;;;;4971439;28;20474;-81
2023/05/06 03:49:46;;;;;;;35.37;33.03;;;14.40;99.90;;;;;;4971749;28;20462;-86
2023/05/06 03:52:13;;;;;;;35.53;33.33;;;14.30;99.90;;;;;;4971701;28;20911;-85
2023/05/06 03:54:39;;;;;;;33.23;31.13;;;14.40;99.90;;;;;;4971266;28;20459;-86
2023/05/06 03:57:07;;;;;;;34.63;32.53;;;14.40;99.90;;;;;;4971107;28;20487;-86
2023/05/06 03:59:34;;;;;;;34.63;32.30;;;14.30;99.90;;;;;;4973922;28;20817;-86
2023/05/06 04:02:01;;;;;;;35.13;33.03;;;14.20;99.90;;;;;;4975288;28;20456;-85
2023/05/06 04:04:28;;;;;;;31.83;30.03;;;14.20;99.90;;;;;;4975027;28;20996;-86
2023/05/06 04:06:55;;;;;;;32.43;30.63;;;14.10;99.90;;;;;;4976403;28;20827;-86
2023/05/06 04:09:22;;;;;;;30.93;29.13;;;14.00;99.90;;;;;;4977606;28;20448;-86
2023/05/06 04:11:48;;;;;;;30.53;28.63;;;14.00;99.90;;;;;;4977770;28;20455;-86
2023/05/06 04:14:16;;;;;;;29.53;27.47;;;13.90;99.90;;;;;;4977489;28;20483;-85
2023/05/06 04:16:43;;;;;;;31.17;29.17;;;13.90;99.90;;;;;;4974178;28;21025;-83
2023/05/06 04:19:10;;;;;;;30.73;28.93;;;13.80;99.90;;;;;;4973717;28;20458;-82
2023/05/06 04:21:36;;;;;;;31.17;29.37;;;13.80;99.90;;;;;;4973577;28;20489;-81
2023/05/06 04:24:03;;;;;;;32.77;30.50;;;13.80;99.90;;;;;;4974327;28;20451;-85
2023/05/06 04:26:30;;;;;;;32.97;30.53;;;13.80;99.90;;;;;;4972836;28;20451;-85
2023/05/06 04:28:57;;;;;;;31.27;29.40;;;13.80;99.90;;;;;;4972162;28;20721;-84
2023/05/06 04:31:28;;;;;;;34.53;32.30;;;13.80;99.90;;;;;;4972288;28;20467;-82
2023/05/06 04:33:55;;;;;;;36.23;33.67;;;13.80;99.90;;;;;;4970195;28;20534;-84
2023/05/06 04:36:22;;;;;;;37.33;34.57;;;13.80;99.90;;;;;;4972896;28;20543;-82
2023/05/06 04:38:51;;;;;;;40.80;36.80;;;13.90;99.90;;;;;;4974256;28;20546;-85
2023/05/06 04:41:19;;;;;;;42.40;39.10;;;14.00;99.90;;;;;;4973960;28;20880;-83
2023/05/06 04:43:46;;;;;;;40.60;37.30;;;14.00;99.90;;;;;;4972290;28;20443;-80
2023/05/06 04:46:13;;;;;;;39.13;36.00;;;14.00;99.90;;;;;;4969744;28;20455;-84
2023/05/06 04:48:41;;;;;;;41.73;38.43;;;14.00;99.90;;;;;;4973171;28;20439;-80
2023/05/06 04:51:08;;;;;;;43.87;39.77;;;14.10;99.90;;;;;;4971683;28;20448;-82
2023/05/06 04:53:35;;;;;;;45.10;41.00;;;14.20;99.90;;;;;;4974164;28;20451;-81
2023/05/06 04:56:01;;;;;;;41.67;38.03;;;14.20;99.90;;;;;;4972255;28;20443;-81
2023/05/06 04:58:28;;;;;;;40.13;36.70;;;14.10;99.90;;;;;;4971329;28;20492;-83
2023/05/06 05:00:56;;;;;;;38.73;35.73;;;14.10;99.90;;;;;;4971629;28;20444;-83
2023/05/06 05:03:22;;;;;;;37.20;34.30;;;14.20;99.90;;;;;;4972241;28;20467;-84
2023/05/06 05:05:50;;;;;;;39.73;36.60;;;14.20;99.90;;;;;;4972856;28;20910;-83
2023/05/06 05:08:17;;;;;;;41.17;37.87;;;14.30;99.90;;;;;;4972697;28;20444;-84
2023/05/06 05:10:44;;;;;;;39.50;36.17;;;14.30;99.90;;;;;;4971510;28;20502;-84
2023/05/06 05:13:10;;;;;;;36.93;33.93;;;14.30;99.90;;;;;;4971924;28;20456;-85
2023/05/06 05:15:37;;;;;;;34.77;31.77;;;14.50;99.90;;;;;;4972597;28;20476;-86
2023/05/06 05:18:04;;;;;;;32.77;30.17;;;14.50;99.90;;;;;;4975170;28;20487;-87
2023/05/06 05:20:31;;;;;;;33.83;30.93;;;14.50;99.90;;;;;;4972745;28;20460;-86
2023/05/06 05:22:59;;;;;;;37.10;33.93;;;14.60;99.90;;;;;;4971705;28;20443;-87
2023/05/06 05:25:26;;;;;;;37.53;34.23;;;14.70;99.90;;;;;;4972699;28;20452;-87
2023/05/06 05:27:53;;;;;;;39.87;36.50;;;14.80;99.90;;;;;;4973745;28;20455;-86
2023/05/06 05:30:19;;;;;;;35.70;32.70;;;15.00;99.90;;;;;;4972401;28;20459;-81
2023/05/06 05:32:46;;;;;;;34.00;31.47;;;15.30;99.90;;;;;;4971793;28;20467;-80
2023/05/06 05:35:13;;;;;;;32.27;30.07;;;15.50;99.90;;;;;;4971940;28;20455;-79
2023/05/06 05:37:39;;;;;;;31.03;28.83;;;15.90;99.90;;;;;;4971398;28;20498;-79
2023/05/06 05:40:10;;;;;;;29.63;27.57;;;16.20;99.90;;;;;;4971970;28;20467;-79
2023/05/06 05:42:36;;;;;;;25.83;24.23;;;16.50;99.90;;;;;;4971993;28;20467;-79
2023/05/06 05:45:03;;;;;;;24.40;23.00;;;17.00;99.90;;;;;;4971764;28;20462;-80
2023/05/06 05:47:30;;;;;;;26.23;24.53;;;17.20;99.90;;;;;;4971581;28;20444;-80
2023/05/06 05:49:58;;;;;;;23.47;22.17;;;17.10;99.90;;;;;;4971456;28;21151;-80
2023/05/06 05:52:24;;;;;;;22.93;21.53;;;17.30;99.90;;;;;;4971638;28;20832;-80
2023/05/06 05:54:51;;;;;;;20.87;19.70;;;17.60;99.90;;;;;;4971722;28;20460;-78
2023/05/06 05:57:19;;;;;;;20.60;19.37;;;17.80;99.90;;;;;;4971607;28;20502;-77
2023/05/06 05:59:46;;;;;;;21.43;20.33;;;18.10;99.90;;;;;;4971359;28;20526;-77
2023/05/06 06:02:13;;;;;;;20.30;19.00;;;18.20;99.90;;;;;;4971206;28;20452;-77
2023/05/06 06:04:40;;;;;;;21.87;20.53;;;18.40;99.90;;;;;;4971455;28;20478;-78
2023/05/06 06:07:06;;;;;;;20.30;19.20;;;18.60;99.90;;;;;;4971561;28;20448;-77
2023/05/06 06:09:34;;;;;;;19.77;18.57;;;18.80;99.90;;;;;;4971350;28;20478;-77
2023/05/06 06:12:01;;;;;;;19.77;18.77;;;19.20;99.90;;;;;;4971252;28;20451;-77
2023/05/06 06:14:29;;;;;;;19.73;18.63;;;19.60;99.90;;;;;;4970955;28;20864;-77
2023/05/06 06:16:56;;;;;;;19.83;18.63;;;19.50;99.90;;;;;;4970834;28;20506;-77
2023/05/06 06:19:23;;;;;;;18.23;17.17;;;19.70;99.90;;;;;;4971253;28;20459;-76
2023/05/06 06:21:49;;;;;;;20.40;19.40;;;20.00;99.90;;;;;;4970675;28;20917;-76
2023/05/06 06:24:16;;;;;;;18.30;17.30;;;20.10;99.90;;;;;;4970551;28;20493;-75
2023/05/06 06:26:43;;;;;;;19.17;17.70;;;20.40;99.90;;;;;;4966765;28;20444;-76
2023/05/06 06:29:09;;;;;;;16.80;16.00;;;20.60;99.90;;;;;;4969477;28;20459;-77
2023/05/06 06:31:37;;;;;;;17.60;16.60;;;20.50;99.90;;;;;;4969582;28;20457;-76
2023/05/06 06:34:05;;;;;;;17.60;16.70;;;20.60;99.90;;;;;;4969929;28;20455;-75
2023/05/06 06:36:32;;;;;;;14.17;13.40;;;21.10;99.90;;;;;;4970418;28;20554;-75
2023/05/06 06:38:58;;;;;;;13.20;12.27;;;21.40;99.90;;;;;;4970594;28;20491;-76
2023/05/06 06:41:53;;;;;;;14.40;13.70;;;21.70;99.90;;;;;;4970698;28;20459;-73
2023/05/06 06:44:19;;;;;;;14.00;13.37;;;21.50;99.90;;;;;;4962681;28;20472;-74
2023/05/06 06:46:47;;;;;;;14.53;13.93;;;22.00;99.90;;;;;;4970386;28;20455;-74
2023/05/06 06:49:14;;;;;;;13.87;13.20;;;22.40;99.90;;;;;;4970202;28;20454;-72
2023/05/06 06:51:41;;;;;;;13.10;12.50;;;22.80;99.90;;;;;;4970316;28;20460;-74
2023/05/06 06:54:08;;;;;;;13.40;12.70;;;23.50;99.90;;;;;;4970185;28;20455;-74
2023/05/06 06:56:35;;;;;;;15.43;14.37;;;23.90;99.90;;;;;;4970093;28;20451;-74
2023/05/06 06:59:01;;;;;;;14.33;13.63;;;24.00;99.70;;;;;;4969510;28;20499;-74
2023/05/06 07:01:28;;;;;;;14.43;13.27;;;24.80;97.70;;;;;;4968572;28;20455;-75
2023/05/06 07:03:56;;;;;;;12.63;11.93;;;25.50;96.30;;;;;;4968835;28;20455;-75
2023/05/06 07:06:23;;;;;;;17.57;12.90;;;25.60;95.70;;;;;;4968625;28;20460;-75
2023/05/06 07:08:49;;;;;;;12.70;12.00;;;25.30;95.10;;;;;;4968773;28;20443;-75
2023/05/06 07:11:16;;;;;;;13.50;12.90;;;25.10;95.90;;;;;;4968429;28;20459;-75
2023/05/06 07:13:43;;;;;;;15.10;14.33;;;25.00;97.10;;;;;;4968726;28;20842;-75
2023/05/06 07:16:09;;;;;;;13.77;13.17;;;24.90;96.70;;;;;;4968166;28;20479;-76
2023/05/06 07:18:36;;;;;;;12.80;12.30;;;25.00;95.00;;;;;;4968525;28;20786;-76
2023/05/06 07:21:04;;;;;;;12.43;11.93;;;25.30;95.00;;;;;;4968737;28;20440;-75
2023/05/06 07:23:31;;;;;;;13.50;12.80;;;25.40;93.60;;;;;;4968668;28;20817;-77
2023/05/06 07:25:58;;;;;;;13.80;13.20;;;24.50;94.70;;;;;;4968518;28;20717;-75
2023/05/06 07:28:25;;;;;;;13.50;12.90;;;24.10;96.30;;;;;;4968575;28;20443;-76
2023/05/06 07:30:52;;;;;;;14.23;13.33;;;23.90;97.20;;;;;;4952003;28;20486;-75
2023/05/06 07:33:19;;;;;;;13.80;13.10;;;23.50;98.60;;;;;;4971089;28;20475;-75
2023/05/06 07:35:45;;;;;;;12.10;11.50;;;22.90;99.80;;;;;;4972774;28;20451;-74
2023/05/06 07:38:14;;;;;;;12.33;11.73;;;22.80;99.70;;;;;;4972778;28;20917;-76
2023/05/06 07:40:40;;;;;;;12.90;12.30;;;22.10;99.90;;;;;;4973246;28;20822;-74
2023/05/06 07:43:08;;;;;;;12.17;11.60;;;21.70;99.90;;;;;;4973185;28;20541;-74
2023/05/06 07:45:35;;;;;;;13.60;13.10;;;21.10;99.90;;;;;;4972727;28;20809;-77
2023/05/06 07:48:01;;;;;;;11.77;11.37;;;21.00;99.90;;;;;;4972908;28;20447;-75
2023/05/06 07:50:28;;;;;;;11.63;11.13;;;21.70;99.90;;;;;;4972963;28;20447;-76
2023/05/06 07:52:55;;;;;;;10.73;10.33;;;22.80;99.90;;;;;;4972801;28;20451;-77
2023/05/06 07:55:23;;;;;;;11.53;11.13;;;23.30;97.70;;;;;;4972945;28;20448;-77
2023/05/06 07:57:50;;;;;;;11.70;11.20;;;24.40;96.20;;;;;;4973017;28;20490;-77
2023/05/06 08:00:18;;;;;;;12.43;11.93;;;25.30;93.10;;;;;;4973060;28;20448;-76
2023/05/06 08:02:46;;;;;;;11.63;11.23;;;26.50;90.80;;;;;;4972647;28;20444;-77
2023/05/06 08:05:13;;;;;;;13.07;12.27;;;27.30;86.30;;;;;;4975360;28;20602;-77
2023/05/06 08:07:40;;;;;;;11.73;11.33;;;26.20;88.10;;;;;;4975801;28;20447;-76
2023/05/06 08:10:08;;;;;;;11.97;11.50;;;26.60;89.20;;;;;;4988868;28;20782;-77
2023/05/06 08:12:36;;;;;;;13.17;12.33;;;26.40;89.40;;;;;;4992748;28;20450;-79
2023/05/06 08:15:04;;;;;;;11.90;11.40;;;26.00;90.30;;;;;;4973658;28;20695;-76
2023/05/06 08:17:30;;;;;;;11.73;11.23;;;25.50;91.00;;;;;;4973862;28;20447;-76
2023/05/06 08:19:57;;;;;;;12.40;11.90;;;25.30;90.50;;;;;;4973605;28;20456;-77
2023/05/06 08:22:24;;;;;;;13.67;13.10;;;25.80;90.60;;;;;;4984869;28;20463;-78
2023/05/06 08:24:50;;;;;;;13.30;12.80;;;26.70;88.40;;;;;;4993535;28;20454;-77
2023/05/06 08:27:17;;;;;;;12.73;12.03;;;27.50;84.40;;;;;;4993494;28;20454;-77
2023/05/06 08:29:45;;;;;;;12.17;11.77;;;28.70;80.20;;;;;;4993297;28;20454;-76
2023/05/06 08:32:12;;;;;;;12.97;12.47;;;29.50;77.90;;;;;;4993152;28;20473;-76
2023/05/06 08:34:39;;;;;;;12.10;11.60;;;28.60;75.80;;;;;;4991488;28;21496;-76
2023/05/06 08:37:05;;;;;;;12.17;11.50;;;28.00;77.20;;;;;;4993084;28;20462;-76
2023/05/06 08:39:32;;;;;;;11.73;11.17;;;27.10;80.30;;;;;;4981753;28;20486;-77
2023/05/06 08:42:01;;;;;;;12.60;12.00;;;26.70;84.00;;;;;;4973563;28;20455;-79
2023/05/06 08:44:30;;;;;;;14.20;13.60;;;26.00;86.10;;;;;;4972941;28;20961;-78
2023/05/06 08:46:58;;;;;;;13.00;12.43;;;25.40;86.10;;;;;;4973600;28;20542;-78
2023/05/06 08:49:25;;;;;;;12.17;11.63;;;25.60;86.40;;;;;;4973189;28;20456;-77
2023/05/06 08:51:52;;;;;;;11.90;11.40;;;25.90;86.80;;;;;;4973412;28;20463;-77
2023/05/06 08:54:19;;;;;;;12.80;12.10;;;26.80;82.80;;;;;;4973337;28;20500;-77
2023/05/06 08:56:52;;;;;;;13.80;13.40;;;27.50;80.30;;;;;;4973295;28;20455;-77
2023/05/06 08:59:22;;;;;;;12.73;12.23;;;28.30;76.30;;;;;;4973519;28;20487;-80
2023/05/06 09:01:49;;;;;;;12.57;12.03;;;28.90;75.80;;;;;;4973547;28;20827;-78
2023/05/06 09:04:18;;;;;;;13.07;12.67;;;30.30;69.30;;;;;;4973105;28;20448;-79
2023/05/06 09:06:45;;;;;;;14.03;13.50;;;30.70;69.10;;;;;;4973364;28;20941;-79
2023/05/06 09:09:13;;;;;;;13.10;12.57;;;31.00;67.60;;;;;;4973461;28;20444;-79
2023/05/06 09:11:40;;;;;;;14.40;13.80;;;31.50;64.80;;;;;;4972870;28;20459;-77
2023/05/06 09:14:10;;;;;;;12.90;12.47;;;31.60;63.20;;;;;;4988191;28;20470;-77
2023/05/06 09:16:37;;;;;;;13.87;13.37;;;31.60;62.40;;;;;;4992376;28;21010;-79
2023/05/06 09:19:04;;;;;;;12.50;11.70;;;32.40;62.80;;;;;;4992735;28;20494;-79
2023/05/06 09:21:36;;;;;;;12.60;12.20;;;32.60;58.80;;;;;;4992322;28;20952;-80
2023/05/06 09:24:05;;;;;;;13.97;13.43;;;32.90;57.10;;;;;;4992168;28;20454;-79
2023/05/06 09:26:33;;;;;;;14.37;13.87;;;32.60;58.60;;;;;;4992152;28;20784;-80
2023/05/06 09:29:00;;;;;;;12.03;11.40;;;32.20;59.20;;;;;;4992124;28;20527;-80
2023/05/06 09:31:28;;;;;;;11.67;11.07;;;31.80;59.30;;;;;;4991988;28;20874;-79
2023/05/06 09:33:56;;;;;;;13.00;12.60;;;31.70;58.80;;;;;;4991619;28;20450;-80
2023/05/06 09:36:25;;;;;;;13.57;13.07;;;32.10;57.70;;;;;;4991859;28;20482;-79
2023/05/06 09:38:54;;;;;;;13.77;13.17;;;32.40;58.40;;;;;;4991766;28;20487;-79
2023/05/06 09:41:23;;;;;;;14.43;13.70;;;33.00;56.80;;;;;;4991618;28;20537;-80
2023/05/06 09:43:51;;;;;;;12.93;12.50;;;33.00;54.60;;;;;;4991973;28;20455;-78
2023/05/06 09:46:18;;;;;;;13.20;12.70;;;32.60;55.00;;;;;;4992010;28;20454;-78
2023/05/06 09:48:46;;;;;;;12.97;12.40;;;32.80;54.80;;;;;;4991945;28;20462;-80
2023/05/06 09:51:13;;;;;;;13.33;12.93;;;33.40;54.20;;;;;;4991820;28;20462;-81
2023/05/06 09:53:41;;;;;;;14.17;13.47;;;34.20;53.80;;;;;;4991597;28;20788;-81
2023/05/06 09:56:09;;;;;;;13.53;13.13;;;33.40;53.10;;;;;;4991023;28;20475;-80
2023/05/06 09:58:36;;;;;;;14.10;13.40;;;30.80;57.90;;;;;;4991916;28;20482;-79
2023/05/06 10:01:04;;;;;;;12.73;12.17;;;29.50;60.70;;;;;;4992070;28;20458;-81
2023/05/06 10:03:32;;;;;;;13.00;12.20;;;29.30;61.10;;;;;;4991746;28;20969;-82
2023/05/06 10:06:01;;;;;;;13.00;12.60;;;29.30;61.00;;;;;;4991732;28;20447;-83
2023/05/06 10:08:28;;;;;;;13.17;12.47;;;29.10;62.20;;;;;;4991383;28;20451;-82
2023/05/06 10:10:55;;;;;;;11.63;11.23;;;28.40;62.80;;;;;;4983086;28;20969;-81
2023/05/06 10:13:24;;;;;;;12.80;12.30;;;27.80;64.80;;;;;;4970138;28;20464;-78
2023/05/06 10:15:51;;;;;;;11.70;11.30;;;27.50;65.30;;;;;;4972006;28;20585;-82
2023/05/06 10:18:19;;;;;;;11.80;11.40;;;27.70;67.30;;;;;;4972055;28;20933;-77
2023/05/06 17:01:17;;;;;;;9.33;8.93;;;23.40;58.70;;;;;;5246420;23;20511;-76
2023/05/06 17:03:44;;;;;;;9.00;8.70;;;23.30;59.50;;;;;;4969115;28;20483;-77
2023/05/06 17:06:11;;;;;;;9.23;8.93;;;23.30;60.10;;;;;;4970561;28;20840;-75
2023/05/06 17:08:37;;;;;;;8.73;8.43;;;23.30;59.60;;;;;;4973221;28;20502;-76
2023/05/06 17:11:06;;;;;;;9.67;9.37;;;23.30;59.50;;;;;;4972663;28;20502;-76
2023/05/06 17:13:33;;;;;;;8.93;8.63;;;23.30;59.80;;;;;;4973116;28;20451;-76
2023/05/06 17:15:59;;;;;;;8.80;8.50;;;23.30;59.40;;;;;;4972240;28;20871;-75
2023/05/06 17:18:27;;;;;;;8.60;8.30;;;23.10;59.70;;;;;;4972342;28;20474;-75
2023/05/06 17:20:54;;;;;;;9.83;9.43;;;22.90;59.60;;;;;;4972277;28;20460;-76
2023/05/06 17:23:21;;;;;;;9.83;9.53;;;22.80;59.40;;;;;;4972834;28;20872;-76
2023/05/06 17:25:48;;;;;;;9.87;9.47;;;22.70;59.90;;;;;;4972678;28;20448;-77
2023/05/06 17:28:14;;;;;;;9.10;8.80;;;22.70;60.80;;;;;;4972229;28;20839;-75
2023/05/06 17:30:41;;;;;;;9.73;9.30;;;22.70;61.20;;;;;;4972367;28;21028;-75
2023/05/06 17:33:07;;;;;;;9.93;9.53;;;22.60;61.70;;;;;;4971954;28;20814;-76
2023/05/06 17:35:35;;;;;;;10.20;9.80;;;22.60;62.40;;;;;;4972657;28;20458;-75
2023/05/06 17:38:02;;;;;;;10.23;9.70;;;22.40;63.20;;;;;;4972269;28;20459;-75
2023/05/06 17:40:29;;;;;;;10.30;9.90;;;22.30;64.20;;;;;;4972223;28;20491;-75
2023/05/06 17:42:55;;;;;;;10.37;9.90;;;22.20;65.20;;;;;;4972278;28;20821;-76
2023/05/06 17:45:24;;;;;;;10.70;10.30;;;22.20;67.40;;;;;;4972636;28;20460;-77
2023/05/06 17:47:50;;;;;;;10.03;9.57;;;22.20;66.80;;;;;;4973053;28;20463;-84
2023/05/06 17:50:17;;;;;;;9.90;9.50;;;22.10;67.90;;;;;;4972528;28;20463;-80
2023/05/06 17:52:49;;;;;;;10.17;9.83;;;22.10;68.90;;;;;;4972297;28;20460;-75
2023/05/06 17:55:16;;;;;;;10.20;9.77;;;22.20;69.70;;;;;;4972298;28;20536;-77
2023/05/06 17:57:43;;;;;;;10.50;10.10;;;22.20;70.00;;;;;;4972141;28;20452;-76
2023/05/06 18:00:10;;;;;;;10.30;10.00;;;22.00;70.80;;;;;;4971479;28;20503;-77
2023/05/06 18:02:37;;;;;;;10.57;10.17;;;22.00;71.60;;;;;;4972028;28;20459;-75
2023/05/06 18:05:05;;;;;;;10.50;10.10;;;22.00;72.10;;;;;;4972184;28;20475;-76
2023/05/06 18:07:31;;;;;;;10.20;9.90;;;22.00;73.30;;;;;;4971945;28;20541;-75
2023/05/06 18:09:59;;;;;;;11.10;10.40;;;21.80;73.20;;;;;;4971945;28;20507;-75
2023/05/06 18:12:27;;;;;;;10.60;10.10;;;21.60;73.60;;;;;;4966546;28;20482;-76
2023/05/06 18:14:54;;;;;;;10.47;9.90;;;21.60;74.00;;;;;;4971468;28;20460;-77
2023/05/06 18:17:20;;;;;;;10.80;10.30;;;21.50;75.00;;;;;;4971138;28;20460;-76
2023/05/06 18:19:47;;;;;;;11.70;11.10;;;21.40;75.60;;;;;;4971511;28;20499;-75
2023/05/06 18:22:14;;;;;;;10.77;10.37;;;21.40;76.90;;;;;;4971749;28;20467;-76
2023/05/06 18:24:40;;;;;;;10.60;10.20;;;21.20;77.50;;;;;;4971588;28;20456;-77
2023/05/06 18:27:08;;;;;;;10.70;10.30;;;21.10;77.60;;;;;;4971473;28;20517;-78
2023/05/06 18:29:35;;;;;;;10.60;10.00;;;21.00;78.30;;;;;;4971468;28;20455;-75
2023/05/06 18:32:02;;;;;;;9.83;9.53;;;20.90;79.40;;;;;;4971357;28;20884;-77
2023/05/06 18:34:29;;;;;;;11.00;10.60;;;20.70;80.50;;;;;;4971352;28;20518;-77
2023/05/06 18:36:56;;;;;;;10.80;10.40;;;20.70;81.00;;;;;;4971402;28;20515;-74
2023/05/06 18:39:23;;;;;;;11.40;10.90;;;20.70;82.50;;;;;;4971274;28;20487;-76
2023/05/06 18:41:50;;;;;;;10.77;10.37;;;20.60;82.20;;;;;;4970935;28;20487;-76
2023/05/06 18:44:18;;;;;;;10.17;9.77;;;20.50;82.90;;;;;;4971060;28;20447;-76
2023/05/06 18:46:45;;;;;;;11.07;10.53;;;20.30;84.00;;;;;;4970731;28;20459;-76
2023/05/06 18:49:12;;;;;;;11.33;10.73;;;20.30;85.60;;;;;;4971023;28;20450;-76
2023/05/06 18:51:39;;;;;;;10.90;10.10;;;20.20;87.10;;;;;;4970842;28;20529;-75
2023/05/06 18:54:07;;;;;;;11.70;10.93;;;20.20;88.40;;;;;;4970802;28;20455;-75
2023/05/06 18:56:34;;;;;;;12.13;11.33;;;20.20;89.00;;;;;;4970960;28;20522;-76
2023/05/06 18:59:00;;;;;;;11.30;10.60;;;20.10;90.20;;;;;;4970626;28;20906;-76
2023/05/06 19:01:29;;;;;;;11.13;10.20;;;20.00;90.60;;;;;;4970773;28;20490;-75
2023/05/06 19:03:56;;;;;;;9.80;9.20;;;19.90;91.90;;;;;;4970895;28;20455;-75
2023/05/06 19:06:23;;;;;;;11.00;10.40;;;19.90;90.90;;;;;;4971053;28;20452;-75
2023/05/06 19:08:49;;;;;;;12.40;11.80;;;19.90;91.10;;;;;;4970728;28;21020;-76